sensor_id;sensor_type;location;lat;lon;timestamp;pressure;altitude;pressure_sealevel;temperature;humidity
38852;BME280;24605;50.092;9.182;2023-08-21T00:01:22;157834.59;;;22.84;97.52
38852;BME280;24605;50.092;9.182;2023-08-21T00:03:48;157834.59;;;22.84;97.43
38852;BME280;24605;50.092;9.182;2023-08-21T00:06:15;157784.72;;;22.64;97.62
38852;BME280;24605;50.092;9.182;2023-08-21T00:08:41;157772.91;;;22.60;98.79
38852;BME280;24605;50.092;9.182;2023-08-21T00:11:08;157726.88;;;22.42;99.51
38852;BME280;24605;50.092;9.182;2023-08-21T00:13:35;157721.63;;;22.40;100.00
38852;BME280;24605;50.092;9.182;2023-08-21T00:16:01;157720.28;;;22.39;100.00
38852;BME280;24605;50.092;9.182;2023-08-21T00:18:29;157747.91;;;22.50;99.73
38852;BME280;24605;50.092;9.182;2023-08-21T00:20:56;157759.72;;;22.54;99.06
38852;BME280;24605;50.092;9.182;2023-08-21T00:23:22;157750.53;;;22.51;98.85
38852;BME280;24605;50.092;9.182;2023-08-21T00:25:49;157753.16;;;22.52;98.72
38852;BME280;24605;50.092;9.182;2023-08-21T00:28:15;157695.34;;;22.29;100.00
38852;BME280;24605;50.092;9.182;2023-08-21T00:30:42;157697.94;;;22.30;100.00
38852;BME280;24605;50.092;9.182;2023-08-21T00:33:09;157713.72;;;22.36;100.00
38852;BME280;24605;50.092;9.182;2023-08-21T00:35:36;157732.16;;;22.44;100.00
38852;BME280;24605;50.092;9.182;2023-08-21T00:38:03;157703.19;;;22.32;100.00
38852;BME280;24605;50.092;9.182;2023-08-21T00:40:30;157662.50;;;22.16;100.00
38852;BME280;24605;50.092;9.182;2023-08-21T00:42:57;157684.81;;;22.25;100.00
38852;BME280;24605;50.092;9.182;2023-08-21T00:45:24;157686.16;;;22.26;100.00
38852;BME280;24605;50.092;9.182;2023-08-21T00:47:50;157678.25;;;22.22;100.00
38852;BME280;24605;50.092;9.182;2023-08-21T00:50:17;157653.28;;;22.13;100.00
38852;BME280;24605;50.092;9.182;2023-08-21T00:52:46;157680.88;;;22.23;100.00
38852;BME280;24605;50.092;9.182;2023-08-21T00:55:13;157665.09;;;22.17;100.00
38852;BME280;24605;50.092;9.182;2023-08-21T00:57:40;157678.25;;;22.22;100.00
38852;BME280;24605;50.092;9.182;2023-08-21T01:00:08;157665.09;;;22.17;100.00
38852;BME280;24605;50.092;9.182;2023-08-21T01:02:36;157630.97;;;22.04;100.00
38852;BME280;24605;50.092;9.182;2023-08-21T01:05:03;157644.09;;;22.09;100.00
38852;BME280;24605;50.092;9.182;2023-08-21T01:07:30;157634.91;;;22.05;100.00
38852;BME280;24605;50.092;9.182;2023-08-21T01:10:03;157663.81;;;22.17;100.00
38852;BME280;24605;50.092;9.182;2023-08-21T01:12:37;157649.34;;;22.11;100.00
38852;BME280;24605;50.092;9.182;2023-08-21T01:15:07;157636.25;;;22.06;100.00
38852;BME280;24605;50.092;9.182;2023-08-21T01:17:36;157625.72;;;22.02;100.00
38852;BME280;24605;50.092;9.182;2023-08-21T01:20:05;157669.06;;;22.19;100.00
38852;BME280;24605;50.092;9.182;2023-08-21T01:22:35;157645.44;;;22.10;100.00
38852;BME280;24605;50.092;9.182;2023-08-21T01:25:04;157662.50;;;22.16;100.00
38852;BME280;24605;50.092;9.182;2023-08-21T01:27:31;157724.25;;;22.41;100.00
38852;BME280;24605;50.092;9.182;2023-08-21T01:29:58;157775.53;;;22.61;100.00
38852;BME280;24605;50.092;9.182;2023-08-21T01:32:29;157758.44;;;22.54;100.00
38852;BME280;24605;50.092;9.182;2023-08-21T01:34:58;157667.72;;;22.18;100.00
38852;BME280;24605;50.092;9.182;2023-08-21T01:37:26;157637.53;;;22.06;100.00
38852;BME280;24605;50.092;9.182;2023-08-21T01:39:54;157629.69;;;22.03;100.00
38852;BME280;24605;50.092;9.182;2023-08-21T01:42:25;157613.88;;;21.97;100.00
38852;BME280;24605;50.092;9.182;2023-08-21T01:44:51;157560.06;;;21.76;100.00
38852;BME280;24605;50.092;9.182;2023-08-21T01:47:18;157552.16;;;21.73;100.00
38852;BME280;24605;50.092;9.182;2023-08-21T01:49:44;157531.16;;;21.65;100.00
38852;BME280;24605;50.092;9.182;2023-08-21T01:52:11;157461.53;;;21.37;100.00
38852;BME280;24605;50.092;9.182;2023-08-21T01:54:37;157302.75;;;20.75;100.00
38852;BME280;24605;50.092;9.182;2023-08-21T01:57:04;157469.44;;;21.40;100.00
38852;BME280;24605;50.092;9.182;2023-08-21T01:59:32;157458.91;;;21.36;100.00
38852;BME280;24605;50.092;9.182;2023-08-21T02:01:59;157470.72;;;21.41;100.00
38852;BME280;24605;50.092;9.182;2023-08-21T02:04:25;157434.00;;;21.26;100.00
38852;BME280;24605;50.092;9.182;2023-08-21T02:06:52;157441.84;;;21.29;100.00
38852;BME280;24605;50.092;9.182;2023-08-21T02:09:18;157407.72;;;21.16;100.00
38852;BME280;24605;50.092;9.182;2023-08-21T02:11:45;157452.34;;;21.34;100.00
38852;BME280;24605;50.092;9.182;2023-08-21T02:14:11;157420.84;;;21.21;100.00
38852;BME280;24605;50.092;9.182;2023-08-21T02:16:39;157405.09;;;21.15;100.00
38852;BME280;24605;50.092;9.182;2023-08-21T02:19:06;157382.81;;;21.06;100.00
38852;BME280;24605;50.092;9.182;2023-08-21T02:21:34;157414.28;;;21.19;100.00
38852;BME280;24605;50.092;9.182;2023-08-21T02:24:01;157371.00;;;21.02;100.00
38852;BME280;24605;50.092;9.182;2023-08-21T02:26:28;157393.28;;;21.10;100.00
38852;BME280;24605;50.092;9.182;2023-08-21T02:28:54;157330.28;;;20.86;100.00
38852;BME280;24605;50.092;9.182;2023-08-21T02:31:21;157153.09;;;20.16;100.00
38852;BME280;24605;50.092;9.182;2023-08-21T02:33:49;157342.09;;;20.90;100.00
38852;BME280;24605;50.092;9.182;2023-08-21T02:36:15;157373.56;;;21.03;100.00
38852;BME280;24605;50.092;9.182;2023-08-21T02:38:42;157406.44;;;21.16;100.00
38852;BME280;24605;50.092;9.182;2023-08-21T02:41:08;157401.19;;;21.13;100.00
38852;BME280;24605;50.092;9.182;2023-08-21T02:43:35;157399.84;;;21.13;100.00
38852;BME280;24605;50.092;9.182;2023-08-21T02:46:01;157398.53;;;21.12;100.00
38852;BME280;24605;50.092;9.182;2023-08-21T02:48:28;157352.56;;;20.94;100.00
38852;BME280;24605;50.092;9.182;2023-08-21T02:50:56;157403.81;;;21.15;100.00
38852;BME280;24605;50.092;9.182;2023-08-21T02:53:22;157374.91;;;21.03;100.00
38852;BME280;24605;50.092;9.182;2023-08-21T02:55:49;157368.34;;;21.01;100.00
38852;BME280;24605;50.092;9.182;2023-08-21T02:58:15;157372.28;;;21.02;100.00
38852;BME280;24605;50.092;9.182;2023-08-21T03:00:42;157327.66;;;20.85;100.00
38852;BME280;24605;50.092;9.182;2023-08-21T03:03:09;157373.56;;;21.03;100.00
38852;BME280;24605;50.092;9.182;2023-08-21T03:05:36;157347.38;;;20.92;100.00
38852;BME280;24605;50.092;9.182;2023-08-21T03:08:04;157363.09;;;20.98;100.00
38852;BME280;24605;50.092;9.182;2023-08-21T03:10:31;157356.53;;;20.96;100.00
38852;BME280;24605;50.092;9.182;2023-08-21T03:12:59;157369.66;;;21.01;100.00
38852;BME280;24605;50.092;9.182;2023-08-21T03:15:25;157338.19;;;20.89;100.00
38852;BME280;24605;50.092;9.182;2023-08-21T03:17:52;157357.84;;;20.96;100.00
38852;BME280;24605;50.092;9.182;2023-08-21T03:20:18;157304.03;;;20.75;100.00
38852;BME280;24605;50.092;9.182;2023-08-21T03:22:46;157365.72;;;21.00;100.00
38852;BME280;24605;50.092;9.182;2023-08-21T03:25:14;157390.66;;;21.09;100.00
38852;BME280;24605;50.092;9.182;2023-08-21T03:27:41;157356.53;;;20.96;100.00
38852;BME280;24605;50.092;9.182;2023-08-21T03:30:10;157347.38;;;20.92;100.00
38852;BME280;24605;50.092;9.182;2023-08-21T03:32:39;157328.94;;;20.85;100.00
38852;BME280;24605;50.092;9.182;2023-08-21T03:35:07;157318.47;;;20.81;100.00
38852;BME280;24605;50.092;9.182;2023-08-21T03:37:33;157296.09;;;20.72;100.00
38852;BME280;24605;50.092;9.182;2023-08-21T03:40:02;157271.19;;;20.62;100.00
38852;BME280;24605;50.092;9.182;2023-08-21T03:42:29;157289.53;;;20.70;100.00
38852;BME280;24605;50.092;9.182;2023-08-21T03:44:56;157217.41;;;20.41;100.00
38852;BME280;24605;50.092;9.182;2023-08-21T03:47:23;157267.25;;;20.61;100.00
38852;BME280;24605;50.092;9.182;2023-08-21T03:49:49;157321.09;;;20.82;100.00
38852;BME280;24605;50.092;9.182;2023-08-21T03:52:16;157309.28;;;20.77;100.00
38852;BME280;24605;50.092;9.182;2023-08-21T03:54:43;157272.47;;;20.63;100.00
38852;BME280;24605;50.092;9.182;2023-08-21T03:57:09;157271.19;;;20.62;100.00
38852;BME280;24605;50.092;9.182;2023-08-21T03:59:37;157258.09;;;20.57;100.00
38852;BME280;24605;50.092;9.182;2023-08-21T04:02:04;157269.91;;;20.62;100.00
38852;BME280;24605;50.092;9.182;2023-08-21T04:04:30;157284.28;;;20.67;100.00
38852;BME280;24605;50.092;9.182;2023-08-21T04:06:57;157318.47;;;20.81;100.00
38852;BME280;24605;50.092;9.182;2023-08-21T04:09:23;157262.00;;;20.59;100.00
38852;BME280;24605;50.092;9.182;2023-08-21T04:11:50;157315.84;;;20.80;100.00
38852;BME280;24605;50.092;9.182;2023-08-21T04:14:16;157296.09;;;20.72;100.00
38852;BME280;24605;50.092;9.182;2023-08-21T04:16:44;157302.75;;;20.75;100.00
38852;BME280;24605;50.092;9.182;2023-08-21T04:19:11;157269.91;;;20.62;100.00
38852;BME280;24605;50.092;9.182;2023-08-21T04:21:37;157296.09;;;20.72;100.00
38852;BME280;24605;50.092;9.182;2023-08-21T04:24:04;157314.56;;;20.79;100.00
38852;BME280;24605;50.092;9.182;2023-08-21T04:26:30;157335.56;;;20.88;100.00
38852;BME280;24605;50.092;9.182;2023-08-21T04:28:57;157347.38;;;20.92;100.00
38852;BME280;24605;50.092;9.182;2023-08-21T04:31:23;157325.03;;;20.84;100.00
38852;BME280;24605;50.092;9.182;2023-08-21T04:33:51;157313.22;;;20.79;100.00
38852;BME280;24605;50.092;9.182;2023-08-21T04:36:18;157328.94;;;20.85;100.00
38852;BME280;24605;50.092;9.182;2023-08-21T04:38:44;157361.75;;;20.98;100.00
38852;BME280;24605;50.092;9.182;2023-08-21T04:41:10;157348.66;;;20.93;100.00
38852;BME280;24605;50.092;9.182;2023-08-21T04:43:37;157361.75;;;20.98;100.00
38852;BME280;24605;50.092;9.182;2023-08-21T04:46:04;157372.28;;;21.02;100.00
38852;BME280;24605;50.092;9.182;2023-08-21T04:48:30;157373.56;;;21.03;100.00
38852;BME280;24605;50.092;9.182;2023-08-21T04:50:58;157386.72;;;21.08;100.00
38852;BME280;24605;50.092;9.182;2023-08-21T04:53:25;157347.38;;;20.92;100.00
38852;BME280;24605;50.092;9.182;2023-08-21T04:55:51;157452.34;;;21.34;100.00
38852;BME280;24605;50.092;9.182;2023-08-21T04:58:18;157460.25;;;21.37;100.00
38852;BME280;24605;50.092;9.182;2023-08-21T05:00:44;157427.44;;;21.24;100.00
38852;BME280;24605;50.092;9.182;2023-08-21T05:03:11;157403.81;;;21.15;100.00
38852;BME280;24605;50.092;9.182;2023-08-21T05:05:37;157443.16;;;21.30;100.00
38852;BME280;24605;50.092;9.182;2023-08-21T05:08:05;157452.34;;;21.34;100.00
38852;BME280;24605;50.092;9.182;2023-08-21T05:10:32;157478.63;;;21.44;100.00
38852;BME280;24605;50.092;9.182;2023-08-21T05:12:58;157528.56;;;21.64;100.00
38852;BME280;24605;50.092;9.182;2023-08-21T05:15:25;157577.13;;;21.83;100.00
38852;BME280;24605;50.092;9.182;2023-08-21T05:17:51;157624.41;;;22.01;100.00
38852;BME280;24605;50.092;9.182;2023-08-21T05:20:18;157609.97;;;21.96;100.00
38852;BME280;24605;50.092;9.182;2023-08-21T05:22:44;157579.78;;;21.84;100.00
38852;BME280;24605;50.092;9.182;2023-08-21T05:25:13;157562.69;;;21.77;100.00
38852;BME280;24605;50.092;9.182;2023-08-21T05:27:40;157495.69;;;21.51;100.00
38852;BME280;24605;50.092;9.182;2023-08-21T05:30:07;157557.44;;;21.75;100.00
38852;BME280;24605;50.092;9.182;2023-08-21T05:32:35;157574.50;;;21.82;100.00
38852;BME280;24605;50.092;9.182;2023-08-21T05:35:02;157625.72;;;22.02;100.00
38852;BME280;24605;50.092;9.182;2023-08-21T05:37:29;157674.34;;;22.21;100.00
38852;BME280;24605;50.092;9.182;2023-08-21T05:39:56;157661.19;;;22.16;100.00
38852;BME280;24605;50.092;9.182;2023-08-21T05:42:24;157679.56;;;22.23;100.00
38852;BME280;24605;50.092;9.182;2023-08-21T05:44:50;157669.06;;;22.19;100.00
38852;BME280;24605;50.092;9.182;2023-08-21T05:47:17;157676.91;;;22.22;100.00
38852;BME280;24605;50.092;9.182;2023-08-21T05:49:44;157648.06;;;22.11;100.00
38852;BME280;24605;50.092;9.182;2023-08-21T05:52:10;157733.44;;;22.44;100.00
38852;BME280;24605;50.092;9.182;2023-08-21T05:54:37;157741.34;;;22.47;100.00
38852;BME280;24605;50.092;9.182;2023-08-21T05:57:03;157774.19;;;22.60;100.00
38852;BME280;24605;50.092;9.182;2023-08-21T05:59:32;157845.16;;;22.88;100.00
38852;BME280;24605;50.092;9.182;2023-08-21T06:01:58;157878.00;;;23.01;100.00
38852;BME280;24605;50.092;9.182;2023-08-21T06:04:25;157896.38;;;23.08;100.00
38852;BME280;24605;50.092;9.182;2023-08-21T06:06:52;157871.44;;;22.98;100.00
38852;BME280;24605;50.092;9.182;2023-08-21T06:09:19;157908.22;;;23.13;100.00
38852;BME280;24605;50.092;9.182;2023-08-21T06:11:45;157930.63;;;23.22;100.00
38852;BME280;24605;50.092;9.182;2023-08-21T06:14:12;157996.34;;;23.47;100.00
38852;BME280;24605;50.092;9.182;2023-08-21T06:16:40;158023.94;;;23.58;100.00
38852;BME280;24605;50.092;9.182;2023-08-21T06:19:06;158010.81;;;23.53;100.00
38852;BME280;24605;50.092;9.182;2023-08-21T06:21:32;158044.94;;;23.67;100.00
38852;BME280;24605;50.092;9.182;2023-08-21T06:23:59;158071.25;;;23.77;100.00
38852;BME280;24605;50.092;9.182;2023-08-21T06:26:25;158026.56;;;23.59;100.00
38852;BME280;24605;50.092;9.182;2023-08-21T06:28:52;158010.81;;;23.53;100.00
38852;BME280;24605;50.092;9.182;2023-08-21T06:31:18;158046.25;;;23.67;100.00
38852;BME280;24605;50.092;9.182;2023-08-21T06:33:46;158088.34;;;23.84;100.00
38852;BME280;24605;50.092;9.182;2023-08-21T06:36:13;158119.94;;;23.96;100.00
38852;BME280;24605;50.092;9.182;2023-08-21T06:38:39;158131.75;;;24.01;100.00
38852;BME280;24605;50.092;9.182;2023-08-21T06:41:06;158147.53;;;24.07;100.00
38852;BME280;24605;50.092;9.182;2023-08-21T06:43:32;158211.97;;;24.32;100.00
38852;BME280;24605;50.092;9.182;2023-08-21T06:45:59;158255.41;;;24.49;100.00
38852;BME280;24605;50.092;9.182;2023-08-21T06:48:25;158271.16;;;24.55;100.00
38852;BME280;24605;50.092;9.182;2023-08-21T06:50:53;158308.03;;;24.70;100.00
38852;BME280;24605;50.092;9.182;2023-08-21T06:53:20;158343.53;;;24.84;100.00
38852;BME280;24605;50.092;9.182;2023-08-21T06:55:46;158396.19;;;25.05;100.00
38852;BME280;24605;50.092;9.182;2023-08-21T06:58:13;158406.69;;;25.09;100.00
38852;BME280;24605;50.092;9.182;2023-08-21T07:00:39;158408.03;;;25.09;100.00
38852;BME280;24605;50.092;9.182;2023-08-21T07:03:05;158426.44;;;25.16;100.00
38852;BME280;24605;50.092;9.182;2023-08-21T07:05:33;158459.31;;;25.29;100.00
38852;BME280;24605;50.092;9.182;2023-08-21T07:08:00;158480.38;;;25.38;100.00
38852;BME280;24605;50.092;9.182;2023-08-21T07:10:27;158465.88;;;25.32;100.00
38852;BME280;24605;50.092;9.182;2023-08-21T07:12:54;158415.94;;;25.12;100.00
38852;BME280;24605;50.092;9.182;2023-08-21T07:15:21;158419.88;;;25.14;100.00
38852;BME280;24605;50.092;9.182;2023-08-21T07:17:48;158463.25;;;25.31;100.00
38852;BME280;24605;50.092;9.182;2023-08-21T07:20:15;158497.53;;;25.44;100.00
38852;BME280;24605;50.092;9.182;2023-08-21T07:22:42;158567.25;;;25.72;100.00
38852;BME280;24605;50.092;9.182;2023-08-21T07:25:10;158594.94;;;25.83;100.00
38852;BME280;24605;50.092;9.182;2023-08-21T07:27:36;158630.44;;;25.96;100.00
38852;BME280;24605;50.092;9.182;2023-08-21T07:30:04;158679.22;;;26.16;98.95
38852;BME280;24605;50.092;9.182;2023-08-21T07:32:30;158638.34;;;26.00;100.00
38852;BME280;24605;50.092;9.182;2023-08-21T07:34:57;158618.56;;;25.92;100.00
38852;BME280;24605;50.092;9.182;2023-08-21T07:37:23;158573.81;;;25.74;100.00
38852;BME280;24605;50.092;9.182;2023-08-21T07:39:50;158544.91;;;25.63;100.00
38852;BME280;24605;50.092;9.182;2023-08-21T07:42:18;158521.22;;;25.54;100.00
38852;BME280;24605;50.092;9.182;2023-08-21T07:44:44;158484.34;;;25.39;100.00
38852;BME280;24605;50.092;9.182;2023-08-21T07:47:11;158477.72;;;25.37;100.00
38852;BME280;24605;50.092;9.182;2023-08-21T07:49:37;158486.97;;;25.40;100.00
38852;BME280;24605;50.092;9.182;2023-08-21T07:52:04;158471.16;;;25.34;100.00
38852;BME280;24605;50.092;9.182;2023-08-21T07:54:31;158521.22;;;25.54;100.00
38852;BME280;24605;50.092;9.182;2023-08-21T07:56:57;158544.91;;;25.63;100.00
38852;BME280;24605;50.092;9.182;2023-08-21T07:59:25;158552.78;;;25.66;100.00
38852;BME280;24605;50.092;9.182;2023-08-21T08:01:52;158573.81;;;25.74;100.00
38852;BME280;24605;50.092;9.182;2023-08-21T08:04:18;158587.03;;;25.79;100.00
38852;BME280;24605;50.092;9.182;2023-08-21T08:06:45;158563.31;;;25.70;100.00
38852;BME280;24605;50.092;9.182;2023-08-21T08:09:12;158638.34;;;26.00;100.00
38852;BME280;24605;50.092;9.182;2023-08-21T08:11:38;158633.06;;;25.97;100.00
38852;BME280;24605;50.092;9.182;2023-08-21T08:14:05;158702.91;;;26.25;100.00
38852;BME280;24605;50.092;9.182;2023-08-21T08:16:32;158751.59;;;26.44;100.00
38852;BME280;24605;50.092;9.182;2023-08-21T08:18:59;158789.78;;;26.59;98.61
38852;BME280;24605;50.092;9.182;2023-08-21T08:21:25;158746.31;;;26.42;99.18
38852;BME280;24605;50.092;9.182;2023-08-21T08:23:52;158795.06;;;26.61;98.27
38852;BME280;24605;50.092;9.182;2023-08-21T08:26:18;158800.31;;;26.63;97.32
38852;BME280;24605;50.092;9.182;2023-08-21T08:28:45;158802.94;;;26.64;97.06
38852;BME280;24605;50.092;9.182;2023-08-21T08:31:14;158802.94;;;26.64;96.34
38852;BME280;24605;50.092;9.182;2023-08-21T08:33:42;158810.88;;;26.67;95.28
38852;BME280;24605;50.092;9.182;2023-08-21T08:36:09;158808.22;;;26.66;95.34
38852;BME280;24605;50.092;9.182;2023-08-21T08:38:35;158853.03;;;26.84;93.29
38852;BME280;24605;50.092;9.182;2023-08-21T08:41:06;158901.75;;;27.03;92.71
38852;BME280;24605;50.092;9.182;2023-08-21T08:43:39;158909.66;;;27.06;92.64
38852;BME280;24605;50.092;9.182;2023-08-21T08:46:07;158903.09;;;27.03;93.39
38852;BME280;24605;50.092;9.182;2023-08-21T08:48:34;158907.03;;;27.05;94.36
38852;BME280;24605;50.092;9.182;2023-08-21T08:51:02;158893.88;;;27.00;93.60
38852;BME280;24605;50.092;9.182;2023-08-21T08:53:30;158868.81;;;26.90;93.27
38852;BME280;24605;50.092;9.182;2023-08-21T08:55:57;158955.75;;;27.24;92.31
38852;BME280;24605;50.092;9.182;2023-08-21T08:58:24;159001.88;;;27.42;93.43
38852;BME280;24605;50.092;9.182;2023-08-21T09:00:50;159016.41;;;27.48;91.29
38852;BME280;24605;50.092;9.182;2023-08-21T09:03:17;159036.16;;;27.56;90.06
38852;BME280;24605;50.092;9.182;2023-08-21T09:05:43;159012.44;;;27.46;90.86
38852;BME280;24605;50.092;9.182;2023-08-21T09:08:12;159013.78;;;27.47;90.36
38852;BME280;24605;50.092;9.182;2023-08-21T09:10:41;159024.28;;;27.51;90.12
38852;BME280;24605;50.092;9.182;2023-08-21T09:13:12;159032.22;;;27.54;89.38
38852;BME280;24605;50.092;9.182;2023-08-21T09:15:41;159050.66;;;27.61;89.03
38852;BME280;24605;50.092;9.182;2023-08-21T09:18:09;159026.94;;;27.52;88.79
38852;BME280;24605;50.092;9.182;2023-08-21T09:20:36;159057.22;;;27.64;88.30
38852;BME280;24605;50.092;9.182;2023-08-21T09:23:02;159135.00;;;27.94;86.35
38852;BME280;24605;50.092;9.182;2023-08-21T09:25:35;159237.81;;;28.35;83.79
38852;BME280;24605;50.092;9.182;2023-08-21T09:28:04;159248.34;;;28.39;82.42
38852;BME280;24605;50.092;9.182;2023-08-21T09:30:43;159212.81;;;28.25;85.49
38852;BME280;24605;50.092;9.182;2023-08-21T09:33:10;159177.22;;;28.11;84.82
38852;BME280;24605;50.092;9.182;2023-08-21T09:35:37;159140.25;;;27.96;84.92
38852;BME280;24605;50.092;9.182;2023-08-21T09:38:04;159182.44;;;28.13;84.31
38852;BME280;24605;50.092;9.182;2023-08-21T09:40:32;159165.31;;;28.06;83.36
38852;BME280;24605;50.092;9.182;2023-08-21T09:43:03;159193.00;;;28.17;83.33
38852;BME280;24605;50.092;9.182;2023-08-21T09:45:30;159195.66;;;28.18;84.16
38852;BME280;24605;50.092;9.182;2023-08-21T09:47:57;159177.22;;;28.11;83.90
38852;BME280;24605;50.092;9.182;2023-08-21T09:50:24;159120.50;;;27.89;85.51
38852;BME280;24605;50.092;9.182;2023-08-21T09:52:52;159258.91;;;28.43;82.94
38852;BME280;24605;50.092;9.182;2023-08-21T09:55:20;159222.03;;;28.28;83.04
38852;BME280;24605;50.092;9.182;2023-08-21T09:57:48;159280.00;;;28.51;84.77
38852;BME280;24605;50.092;9.182;2023-08-21T10:00:23;159306.34;;;28.61;83.20
38852;BME280;24605;50.092;9.182;2023-08-21T10:02:51;159365.72;;;28.85;80.23
38852;BME280;24605;50.092;9.182;2023-08-21T10:05:18;159257.59;;;28.42;83.20
38852;BME280;24605;50.092;9.182;2023-08-21T10:07:47;159229.91;;;28.32;80.95
38852;BME280;24605;50.092;9.182;2023-08-21T10:10:16;159214.09;;;28.25;82.36
38852;BME280;24605;50.092;9.182;2023-08-21T10:12:42;159257.59;;;28.42;80.17
38852;BME280;24605;50.092;9.182;2023-08-21T10:15:09;159283.94;;;28.53;80.00
38852;BME280;24605;50.092;9.182;2023-08-21T10:17:38;159287.91;;;28.54;80.58
38852;BME280;24605;50.092;9.182;2023-08-21T10:20:06;159310.28;;;28.63;81.68
38852;BME280;24605;50.092;9.182;2023-08-21T10:22:38;159311.63;;;28.64;76.70
38852;BME280;24605;50.092;9.182;2023-08-21T10:25:14;159311.63;;;28.64;77.41
38852;BME280;24605;50.092;9.182;2023-08-21T10:27:41;159233.88;;;28.33;77.51
38852;BME280;24605;50.092;9.182;2023-08-21T10:30:15;159277.34;;;28.50;77.96
38852;BME280;24605;50.092;9.182;2023-08-21T10:32:47;159278.69;;;28.51;78.27
38852;BME280;24605;50.092;9.182;2023-08-21T10:35:15;159385.47;;;28.92;74.57
38852;BME280;24605;50.092;9.182;2023-08-21T10:38:07;159414.50;;;29.04;73.33
38852;BME280;24605;50.092;9.182;2023-08-21T10:40:34;159427.72;;;29.09;71.40
38852;BME280;24605;50.092;9.182;2023-08-21T10:43:01;159418.44;;;29.05;69.96
38852;BME280;24605;50.092;9.182;2023-08-21T10:45:28;159403.97;;;29.00;70.92
38852;BME280;24605;50.092;9.182;2023-08-21T10:47:58;159414.50;;;29.04;70.63
38852;BME280;24605;50.092;9.182;2023-08-21T10:50:25;159378.91;;;28.90;72.09
38852;BME280;24605;50.092;9.182;2023-08-21T10:52:52;159406.56;;;29.01;69.49
38852;BME280;24605;50.092;9.182;2023-08-21T10:55:20;159410.56;;;29.02;66.07
38852;BME280;24605;50.092;9.182;2023-08-21T10:57:47;159402.63;;;28.99;64.43
38852;BME280;24605;50.092;9.182;2023-08-21T11:00:15;159451.38;;;29.18;67.50
38852;BME280;24605;50.092;9.182;2023-08-21T11:02:43;159467.25;;;29.24;60.09
38852;BME280;24605;50.092;9.182;2023-08-21T11:05:14;159522.66;;;29.46;62.65
38852;BME280;24605;50.092;9.182;2023-08-21T11:07:41;159550.38;;;29.57;63.32
38852;BME280;24605;50.092;9.182;2023-08-21T11:10:11;159520.00;;;29.45;62.54
38852;BME280;24605;50.092;9.182;2023-08-21T11:12:48;159472.53;;;29.27;60.34
38852;BME280;24605;50.092;9.182;2023-08-21T11:15:15;159545.09;;;29.55;60.38
38852;BME280;24605;50.092;9.182;2023-08-21T11:17:42;159541.09;;;29.53;59.09
38852;BME280;24605;50.092;9.182;2023-08-21T11:20:09;159571.47;;;29.65;59.44
38852;BME280;24605;50.092;9.182;2023-08-21T11:22:37;159570.13;;;29.65;58.00
38852;BME280;24605;50.092;9.182;2023-08-21T11:25:05;159554.31;;;29.59;58.05
38852;BME280;24605;50.092;9.182;2023-08-21T11:27:31;159662.50;;;30.01;58.36
38852;BME280;24605;50.092;9.182;2023-08-21T11:29:59;159630.78;;;29.89;61.21
38852;BME280;24605;50.092;9.182;2023-08-21T11:32:26;159584.66;;;29.70;61.62
38852;BME280;24605;50.092;9.182;2023-08-21T11:34:54;159720.53;;;30.24;61.16
38852;BME280;24605;50.092;9.182;2023-08-21T11:37:22;159741.69;;;30.32;61.87
38852;BME280;24605;50.092;9.182;2023-08-21T11:39:52;159650.63;;;29.96;63.96
38852;BME280;24605;50.092;9.182;2023-08-21T11:42:21;159612.31;;;29.81;64.19
38852;BME280;24605;50.092;9.182;2023-08-21T11:44:50;159715.28;;;30.22;63.68
38852;BME280;24605;50.092;9.182;2023-08-21T11:47:19;159657.22;;;29.99;62.18
38852;BME280;24605;50.092;9.182;2023-08-21T11:49:49;159674.38;;;30.06;61.25
38852;BME280;24605;50.092;9.182;2023-08-21T11:52:18;159717.94;;;30.23;58.21
38852;BME280;24605;50.092;9.182;2023-08-21T11:54:48;159775.97;;;30.45;53.37
38852;BME280;24605;50.092;9.182;2023-08-21T11:57:16;159782.53;;;30.48;53.07
38852;BME280;24605;50.092;9.182;2023-08-21T11:59:48;159857.78;;;30.77;53.38
38852;BME280;24605;50.092;9.182;2023-08-21T12:02:17;159775.97;;;30.45;49.33
38852;BME280;24605;50.092;9.182;2023-08-21T12:04:43;159765.44;;;30.41;49.50
38852;BME280;24605;50.092;9.182;2023-08-21T12:07:11;159802.41;;;30.56;50.09
38852;BME280;24605;50.092;9.182;2023-08-21T12:09:38;159698.13;;;30.15;53.66
38852;BME280;24605;50.092;9.182;2023-08-21T12:12:05;159700.78;;;30.16;56.27
38852;BME280;24605;50.092;9.182;2023-08-21T12:14:33;159773.31;;;30.44;55.82
38852;BME280;24605;50.092;9.182;2023-08-21T12:17:04;159752.22;;;30.36;57.47
38852;BME280;24605;50.092;9.182;2023-08-21T12:19:31;159723.19;;;30.25;58.05
38852;BME280;24605;50.092;9.182;2023-08-21T12:21:57;159711.31;;;30.20;54.22
38852;BME280;24605;50.092;9.182;2023-08-21T12:24:24;159712.66;;;30.21;54.16
38852;BME280;24605;50.092;9.182;2023-08-21T12:26:50;159708.69;;;30.19;53.03
38852;BME280;24605;50.092;9.182;2023-08-21T12:29:17;159713.94;;;30.21;53.55
38852;BME280;24605;50.092;9.182;2023-08-21T12:31:45;159729.81;;;30.27;54.06
38852;BME280;24605;50.092;9.182;2023-08-21T12:34:12;159683.59;;;30.09;52.87
38852;BME280;24605;50.092;9.182;2023-08-21T12:36:38;159629.50;;;29.88;52.69
38852;BME280;24605;50.092;9.182;2023-08-21T12:39:06;159724.53;;;30.25;51.42
38852;BME280;24605;50.092;9.182;2023-08-21T12:41:34;159811.63;;;30.59;51.75
38852;BME280;24605;50.092;9.182;2023-08-21T12:44:01;159823.50;;;30.64;50.71